createdAt,value
2023-01-21T00:01:53.302Z,98459.81
2023-01-21T00:04:21.971Z,98459.69
2023-01-21T00:06:50.350Z,98464.81
2023-01-21T00:09:18.987Z,98469.22
2023-01-21T00:11:47.451Z,98469.06
2023-01-21T00:14:17.993Z,98466.84
2023-01-21T00:16:46.239Z,98469.13
2023-01-21T00:19:14.464Z,98475.31
2023-01-21T00:21:42.495Z,98458.91
2023-01-21T00:24:11.779Z,98462.47
2023-01-21T00:26:39.976Z,98466.81
2023-01-21T00:29:09.255Z,98472.91
2023-01-21T00:31:38.820Z,98474.06
2023-01-21T00:34:07.210Z,98471.56
2023-01-21T00:36:35.279Z,98467.78
2023-01-21T00:39:03.753Z,98468.69
2023-01-21T00:41:31.791Z,98477.34
2023-01-21T00:44:00.091Z,98473.00
2023-01-21T00:46:29.644Z,98478.97
2023-01-21T00:49:00.382Z,98481.31
2023-01-21T00:51:32.285Z,98482.09
2023-01-21T00:54:01.618Z,98483.66
2023-01-21T00:56:30.119Z,98487.09
2023-01-21T00:58:58.731Z,98485.28
2023-01-21T01:01:31.111Z,98486.94
2023-01-21T01:04:00.802Z,98480.78
2023-01-21T01:06:29.189Z,98490.59
2023-01-21T01:08:58.720Z,98495.25
2023-01-21T01:11:28.444Z,98497.06
2023-01-21T01:13:57.063Z,98502.94
2023-01-21T01:16:25.795Z,98499.59
2023-01-21T01:18:54.418Z,98485.19
2023-01-21T01:21:24.904Z,98506.78
2023-01-21T01:23:54.829Z,98510.31
2023-01-21T01:26:23.920Z,98515.88
2023-01-21T01:28:52.103Z,98526.41
2023-01-21T01:31:21.272Z,98525.38
2023-01-21T01:33:51.420Z,98522.66
2023-01-21T01:36:24.103Z,98527.78
2023-01-21T01:38:54.354Z,98530.31
2023-01-21T01:41:27.434Z,98526.09
2023-01-21T01:44:00.530Z,98531.34
2023-01-21T01:46:31.070Z,98531.25
2023-01-21T01:49:05.320Z,98539.84
2023-01-21T01:51:43.079Z,98537.22
2023-01-21T01:54:17.747Z,98533.78
2023-01-21T01:56:50.782Z,98536.97
2023-01-21T01:59:20.128Z,98553.13
2023-01-21T02:01:50.041Z,98546.22
2023-01-21T02:04:22.700Z,98534.94
2023-01-21T02:06:53.701Z,98548.63
2023-01-21T02:09:28.017Z,98533.47
2023-01-21T02:11:56.230Z,98536.16
2023-01-21T02:14:24.413Z,98538.56
2023-01-21T02:17:08.304Z,98541.03
2023-01-21T02:19:57.592Z,98539.25
2023-01-21T02:22:32.932Z,98531.06
2023-01-21T02:25:39.247Z,98528.00
2023-01-21T02:28:27.197Z,98530.25
2023-01-21T02:31:29.867Z,98530.91
2023-01-21T02:34:14.159Z,98517.09
2023-01-21T02:37:03.813Z,98542.69
2023-01-21T02:39:46.481Z,98535.34
2023-01-21T02:42:21.781Z,98530.13
2023-01-21T02:44:55.747Z,98519.75
2023-01-21T02:47:30.884Z,98524.31
2023-01-21T02:50:06.268Z,98523.47
2023-01-21T02:52:34.735Z,98505.22
2023-01-21T02:55:04.518Z,98526.28
2023-01-21T02:57:41.010Z,98525.56
2023-01-21T03:00:14.993Z,98520.72
2023-01-21T03:03:23.023Z,98524.09
2023-01-21T03:06:20.191Z,98529.53
2023-01-21T03:08:55.360Z,98530.22
2023-01-21T03:11:24.585Z,98533.56
2023-01-21T03:14:13.759Z,98528.63
2023-01-21T03:16:58.736Z,98529.16
2023-01-21T03:19:34.356Z,98539.13
2023-01-21T03:22:09.603Z,98529.97
2023-01-21T03:24:38.420Z,98539.25
2023-01-21T03:27:10.091Z,98536.19
2023-01-21T03:29:42.241Z,98531.38
2023-01-21T03:32:16.125Z,98533.88
2023-01-21T03:34:51.393Z,98526.41
2023-01-21T03:37:27.331Z,98527.81
2023-01-21T03:40:04.405Z,98522.75
2023-01-21T03:42:33.329Z,98521.97
2023-01-21T03:45:01.645Z,98526.91
2023-01-21T03:47:34.304Z,98529.59
2023-01-21T03:50:06.936Z,98531.19
2023-01-21T03:52:40.834Z,98531.84
2023-01-21T03:55:09.688Z,98531.06
2023-01-21T03:57:37.816Z,98535.63
2023-01-21T04:00:07.597Z,98532.44
2023-01-21T04:02:35.867Z,98523.59
2023-01-21T04:05:04.312Z,98523.88
2023-01-21T04:07:33.094Z,98519.03
2023-01-21T04:10:02.812Z,98540.88
2023-01-21T04:12:31.163Z,98533.47
2023-01-21T04:14:59.469Z,98525.81
2023-01-21T04:17:28.341Z,98510.19
2023-01-21T04:19:56.795Z,98523.94
2023-01-21T04:22:24.746Z,98527.31
2023-01-21T04:24:52.880Z,98519.63
2023-01-21T04:27:22.359Z,98527.00
2023-01-21T04:29:50.633Z,98530.47
2023-01-21T04:32:20.226Z,98518.84
2023-01-21T04:34:48.504Z,98513.81
2023-01-21T04:37:16.611Z,98515.75
2023-01-21T04:39:44.653Z,98522.69
2023-01-21T04:42:12.749Z,98519.13
2023-01-21T04:44:42.454Z,98508.72
2023-01-21T04:47:11.073Z,98522.59
2023-01-21T04:49:39.122Z,98520.69
2023-01-21T04:52:07.326Z,98522.91
2023-01-21T04:54:35.711Z,98520.69
2023-01-21T04:57:04.023Z,98530.97
2023-01-21T04:59:32.290Z,98526.81
2023-01-21T05:02:01.958Z,98532.47
2023-01-21T05:04:30.086Z,98526.50
2023-01-21T05:06:58.242Z,98522.38
2023-01-21T05:09:26.689Z,98533.38
2023-01-21T05:11:55.156Z,98530.09
2023-01-21T05:14:23.273Z,98534.28
2023-01-21T05:16:51.415Z,98531.22
2023-01-21T05:19:21.147Z,98535.22
2023-01-21T05:21:49.696Z,98536.97
2023-01-21T05:24:17.903Z,98539.31
2023-01-21T05:26:46.109Z,98537.91
2023-01-21T05:29:14.271Z,98542.13
2023-01-21T05:31:43.512Z,98545.28
2023-01-21T05:34:11.772Z,98531.72
2023-01-21T05:36:41.236Z,98537.53
2023-01-21T05:39:09.923Z,98543.47
2023-01-21T05:41:38.380Z,98551.91
2023-01-21T05:44:06.879Z,98542.63
2023-01-21T05:46:35.010Z,98550.94
2023-01-21T05:49:03.340Z,98560.19
2023-01-21T05:51:31.481Z,98552.66
2023-01-21T05:54:01.317Z,98550.94
2023-01-21T05:56:29.469Z,98553.66
2023-01-21T05:58:58.901Z,98561.97
2023-01-21T06:01:27.177Z,98561.38
2023-01-21T06:03:55.672Z,98547.56
2023-01-21T06:06:23.867Z,98561.25
2023-01-21T06:08:52.281Z,98561.69
2023-01-21T06:11:21.631Z,98553.50
2023-01-21T06:13:49.646Z,98566.09
2023-01-21T06:16:17.629Z,98562.84
2023-01-21T06:18:45.512Z,98561.56
2023-01-21T06:21:13.400Z,98563.44
2023-01-21T06:23:41.671Z,98567.03
2023-01-21T06:26:10.231Z,98564.63
2023-01-21T06:28:39.707Z,98554.44
2023-01-21T06:31:07.953Z,98564.00
2023-01-21T06:33:36.168Z,98560.19
2023-01-21T06:36:04.831Z,98552.66
2023-01-21T06:38:36.109Z,98562.53
2023-01-21T06:41:04.863Z,98544.16
2023-01-21T06:43:33.284Z,98563.59
2023-01-21T06:46:03.282Z,98557.25
2023-01-21T06:48:31.511Z,98568.50
2023-01-21T06:51:01.760Z,98566.09
2023-01-21T06:53:30.194Z,98572.06
2023-01-21T06:55:58.468Z,98571.56
2023-01-21T06:58:26.686Z,98572.16
2023-01-21T07:00:57.062Z,98575.41
2023-01-21T07:03:26.802Z,98578.09
2023-01-21T07:05:55.874Z,98581.38
2023-01-21T07:08:25.091Z,98585.84
2023-01-21T07:10:53.479Z,98586.75
2023-01-21T07:13:22.091Z,98592.41
2023-01-21T07:15:50.539Z,98591.00
2023-01-21T07:18:18.675Z,98596.78
2023-01-21T07:20:48.471Z,98590.78
2023-01-21T07:23:16.803Z,98599.28
2023-01-21T07:25:45.186Z,98597.78
2023-01-21T07:28:13.387Z,98580.81
2023-01-21T07:30:42.095Z,98593.31
2023-01-21T07:33:11.170Z,98598.44
2023-01-21T07:35:39.387Z,98598.41
2023-01-21T07:38:09.318Z,98590.88
2023-01-21T07:40:37.873Z,98594.22
2023-01-21T07:43:06.192Z,98597.94
2023-01-21T07:45:34.673Z,98594.31
2023-01-21T07:48:03.414Z,98595.94
2023-01-21T07:50:31.776Z,98585.63
2023-01-21T07:53:01.687Z,98600.97
2023-01-21T07:55:32.253Z,98596.13
2023-01-21T07:58:00.966Z,98597.66
2023-01-21T08:00:29.537Z,98598.72
2023-01-21T08:02:59.249Z,98589.19
2023-01-21T08:05:27.934Z,98599.56
2023-01-21T08:07:58.883Z,98583.59
2023-01-21T08:10:27.581Z,98589.00
2023-01-21T08:12:57.126Z,98589.84
2023-01-21T08:15:25.356Z,98598.31
2023-01-21T08:17:53.724Z,98592.16
2023-01-21T08:20:21.973Z,98594.78
2023-01-21T08:22:50.322Z,98586.25
2023-01-21T08:25:19.129Z,98595.81
2023-01-21T08:27:47.361Z,98598.44
2023-01-21T08:30:18.099Z,98609.47
2023-01-21T08:32:46.794Z,98612.72
2023-01-21T08:35:15.260Z,98609.06
2023-01-21T08:37:43.992Z,98606.44
2023-01-21T08:40:13.199Z,98616.72
2023-01-21T08:42:43.766Z,98610.94
2023-01-21T08:45:15.173Z,98612.19
2023-01-21T08:47:44.982Z,98619.66
2023-01-21T08:50:13.437Z,98605.25
2023-01-21T08:52:41.791Z,98613.44
2023-01-21T08:55:11.217Z,98629.41
2023-01-21T08:57:39.455Z,98623.72
2023-01-21T09:00:09.433Z,98618.72
2023-01-21T09:02:38.612Z,98633.19
2023-01-21T09:05:09.384Z,98631.59
2023-01-21T09:07:37.789Z,98643.03
2023-01-21T09:10:07.096Z,98633.81
2023-01-21T09:12:35.972Z,98648.31
2023-01-21T09:15:05.413Z,98637.34
2023-01-21T09:17:34.437Z,98644.19
2023-01-21T09:20:02.556Z,98647.69
2023-01-21T09:22:32.344Z,98644.28
2023-01-21T09:25:10.277Z,98653.78
2023-01-21T09:27:38.379Z,98654.38
2023-01-21T09:30:07.914Z,98655.91
2023-01-21T09:32:37.880Z,98657.78
2023-01-21T09:35:08.481Z,98655.44
2023-01-21T09:37:38.642Z,98664.25
2023-01-21T09:40:08.326Z,98659.59
2023-01-21T09:42:36.430Z,98654.25
2023-01-21T09:45:05.803Z,98650.59
2023-01-21T09:47:38.282Z,98663.84
2023-01-21T09:50:14.274Z,98660.41
2023-01-21T09:52:45.954Z,98668.34
2023-01-21T09:55:19.881Z,98656.56
2023-01-21T09:58:10.812Z,98673.13
2023-01-21T10:00:46.154Z,98672.47
2023-01-21T10:03:27.642Z,98667.47
2023-01-21T10:06:13.547Z,98658.47
2023-01-21T10:09:04.035Z,98665.47
2023-01-21T10:11:48.130Z,98666.13
2023-01-21T10:14:39.959Z,98662.59
2023-01-21T10:17:15.034Z,98668.34
2023-01-21T10:19:47.893Z,98672.31
2023-01-21T10:22:19.890Z,98666.63
2023-01-21T10:24:54.592Z,98666.03
2023-01-21T10:27:24.277Z,98657.34
2023-01-21T10:30:00.667Z,98677.63
2023-01-21T10:32:29.932Z,98676.28
2023-01-21T10:34:59.944Z,98662.72
2023-01-21T10:37:37.276Z,98678.75
2023-01-21T10:40:12.307Z,98678.44
2023-01-21T10:42:52.565Z,98681.72
2023-01-21T10:45:42.231Z,98671.53
2023-01-21T10:48:20.442Z,98677.00
2023-01-21T10:50:55.295Z,98681.59
2023-01-21T10:53:29.733Z,98670.91
2023-01-21T10:56:15.135Z,98676.78
2023-01-21T10:58:49.339Z,98688.81
2023-01-21T11:01:23.162Z,98656.09
2023-01-21T11:03:52.904Z,98670.59
2023-01-21T11:06:23.809Z,98662.13
2023-01-21T11:08:57.607Z,98675.03
2023-01-21T11:11:28.237Z,98670.88
2023-01-21T11:13:56.726Z,98655.88
2023-01-21T11:16:43.235Z,98661.72
2023-01-21T11:19:15.223Z,98654.34
2023-01-21T11:21:57.899Z,98655.56
2023-01-21T11:24:27.718Z,98660.59
2023-01-21T11:27:00.463Z,98653.03
2023-01-21T11:29:39.522Z,98657.97
2023-01-21T11:32:18.455Z,98655.88
2023-01-21T11:34:48.166Z,98652.31
2023-01-21T11:37:27.528Z,98635.59
2023-01-21T11:39:59.227Z,98643.13
2023-01-21T11:42:29.385Z,98653.59
2023-01-21T11:44:59.285Z,98642.56
2023-01-21T11:47:30.598Z,98637.94
2023-01-21T11:50:05.079Z,98647.78
2023-01-21T11:52:33.367Z,98634.47
2023-01-21T11:55:05.143Z,98649.53
2023-01-21T11:57:35.271Z,98631.53
2023-01-21T12:00:10.018Z,98633.31
2023-01-21T12:02:43.967Z,98628.03
2023-01-21T12:05:16.912Z,98635.78
2023-01-21T12:07:50.525Z,98626.56
2023-01-21T12:10:29.317Z,98628.69
2023-01-21T12:13:16.986Z,98632.72
2023-01-21T12:16:15.437Z,98631.56
2023-01-21T12:19:16.467Z,98616.38
2023-01-21T12:21:59.181Z,98616.94
2023-01-21T12:24:41.263Z,98607.25
2023-01-21T12:27:20.904Z,98613.06
2023-01-21T12:30:04.133Z,98609.50
2023-01-21T12:32:38.375Z,98617.88
2023-01-21T12:35:12.713Z,98601.56
2023-01-21T12:37:47.088Z,98597.06
2023-01-21T12:40:20.593Z,98609.28
2023-01-21T12:42:55.177Z,98589.41
2023-01-21T12:45:33.212Z,98609.13
2023-01-21T12:48:06.389Z,98615.13
2023-01-21T12:50:39.823Z,98611.28
2023-01-21T12:53:20.726Z,98616.81
2023-01-21T12:56:08.410Z,98618.75
2023-01-21T12:58:42.984Z,98623.47
2023-01-21T13:01:17.651Z,98622.25
2023-01-21T13:03:57.910Z,98619.88
2023-01-21T13:06:47.186Z,98623.34
2023-01-21T13:09:31.713Z,98632.63
2023-01-21T13:12:05.223Z,98629.84
2023-01-21T13:14:38.720Z,98630.69
2023-01-21T13:17:17.113Z,98632.00
2023-01-21T13:19:45.716Z,98619.78
2023-01-21T13:22:30.676Z,98622.44
2023-01-21T13:25:12.157Z,98625.91
2023-01-21T13:27:47.979Z,98629.94
2023-01-21T13:30:28.895Z,98624.41
2023-01-21T13:33:17.761Z,98628.16
2023-01-21T13:35:52.431Z,98622.41
2023-01-21T13:38:28.519Z,98606.44
2023-01-21T13:41:04.647Z,98622.88
2023-01-21T13:43:54.759Z,98625.31
2023-01-21T13:46:43.197Z,98623.00
2023-01-21T13:49:32.965Z,98629.00
2023-01-21T13:52:07.600Z,98627.94
2023-01-21T13:55:13.146Z,98631.56
2023-01-21T13:58:02.874Z,98631.50
2023-01-21T14:00:34.912Z,98636.69
2023-01-21T14:03:13.888Z,98630.69
2023-01-21T14:05:48.765Z,98632.06
2023-01-21T14:08:25.007Z,98637.25
2023-01-21T14:10:57.969Z,98642.38
2023-01-21T14:13:52.824Z,98645.19
2023-01-21T14:16:41.612Z,98637.69
2023-01-21T14:19:24.826Z,98631.72
2023-01-21T14:22:22.615Z,98630.88
2023-01-21T14:25:10.377Z,98636.09
2023-01-21T14:27:48.704Z,98627.53
2023-01-21T14:30:22.551Z,98627.28
2023-01-21T14:32:53.516Z,98631.34
2023-01-21T14:35:27.732Z,98635.06
2023-01-21T14:38:12.990Z,98629.28
2023-01-21T14:40:49.471Z,98615.63
2023-01-21T14:43:46.994Z,98635.16
2023-01-21T14:46:30.606Z,98633.28
2023-01-21T14:49:08.297Z,98638.34
2023-01-21T14:51:39.419Z,98633.38
2023-01-21T14:54:18.354Z,98636.53
2023-01-21T14:56:54.642Z,98634.88
2023-01-21T14:59:36.037Z,98632.97
2023-01-21T15:02:22.302Z,98643.38
2023-01-21T15:04:56.138Z,98639.81
2023-01-21T15:07:26.192Z,98643.88
2023-01-21T15:09:58.106Z,98647.34
2023-01-21T15:12:30.173Z,98644.13
2023-01-21T15:15:03.671Z,98645.53
2023-01-21T15:18:05.471Z,98650.66
2023-01-21T15:20:50.262Z,98643.22
2023-01-21T15:23:39.758Z,98633.00
2023-01-21T15:26:31.092Z,98653.66
2023-01-21T15:29:35.152Z,98648.44
2023-01-21T15:32:30.152Z,98651.94
2023-01-21T15:35:02.348Z,98648.72
2023-01-21T15:37:34.789Z,98648.59
2023-01-21T15:40:14.044Z,98660.50
2023-01-21T15:42:53.051Z,98649.84
2023-01-21T15:45:30.018Z,98658.66
2023-01-21T15:48:40.194Z,98656.19
2023-01-21T15:51:24.849Z,98653.56
2023-01-21T15:54:15.405Z,98661.13
2023-01-21T15:56:57.764Z,98660.22
2023-01-21T15:59:48.652Z,98658.72
2023-01-21T16:02:22.245Z,98645.72
2023-01-21T16:05:05.640Z,98662.75
2023-01-21T16:07:48.545Z,98657.63
2023-01-21T16:10:26.009Z,98662.84
2023-01-21T16:13:07.920Z,98666.13
2023-01-21T16:15:47.443Z,98676.84
2023-01-21T16:18:30.188Z,98682.72
2023-01-21T16:21:00.983Z,98679.09
2023-01-21T16:23:35.401Z,98679.97
2023-01-21T16:26:03.877Z,98679.72
2023-01-21T16:28:50.269Z,98678.84
2023-01-21T16:31:20.346Z,98672.78
2023-01-21T16:33:48.532Z,98680.41
2023-01-21T16:36:17.132Z,98672.63
2023-01-21T16:38:47.244Z,98678.84
2023-01-21T16:41:24.407Z,98677.03
2023-01-21T16:43:55.399Z,98674.75
2023-01-21T16:46:28.393Z,98688.25
2023-01-21T16:49:00.007Z,98679.03
2023-01-21T16:51:32.821Z,98679.03
2023-01-21T16:54:35.142Z,98681.63
2023-01-21T16:57:05.086Z,98664.50
2023-01-21T16:59:40.554Z,98679.94
2023-01-21T17:02:20.804Z,98684.22
2023-01-21T17:04:49.258Z,98684.34
2023-01-21T17:07:23.883Z,98683.50
2023-01-21T17:09:58.144Z,98688.41
2023-01-21T17:12:29.035Z,98682.34
2023-01-21T17:15:00.790Z,98683.22
2023-01-21T17:17:35.312Z,98683.31
2023-01-21T17:20:04.405Z,98683.31
2023-01-21T17:22:36.692Z,98683.41
2023-01-21T17:25:14.584Z,98670.31
2023-01-21T17:27:45.940Z,98689.28
2023-01-21T17:30:32.609Z,98688.34
2023-01-21T17:33:04.145Z,98694.25
2023-01-21T17:35:34.651Z,98695.91
2023-01-21T17:38:06.900Z,98690.00
2023-01-21T17:40:39.468Z,98682.34
2023-01-21T17:43:21.711Z,98693.50
2023-01-21T17:45:51.379Z,98693.47
2023-01-21T17:48:28.711Z,98676.38
2023-01-21T17:51:07.101Z,98694.06
2023-01-21T17:53:42.933Z,98691.41
2023-01-21T17:56:12.674Z,98692.16
2023-01-21T17:58:50.747Z,98687.09
2023-01-21T18:01:20.457Z,98694.16
2023-01-21T18:03:58.432Z,98695.81
2023-01-21T18:06:29.981Z,98697.63
2023-01-21T18:08:58.736Z,98705.59
2023-01-21T18:11:27.034Z,98696.06
2023-01-21T18:13:57.023Z,98698.66
2023-01-21T18:16:25.551Z,98697.72
2023-01-21T18:18:56.071Z,98699.31
2023-01-21T18:21:25.385Z,98692.50
2023-01-21T18:23:54.277Z,98690.06
2023-01-21T18:26:30.501Z,98693.56
2023-01-21T18:28:59.221Z,98681.75
2023-01-21T18:31:28.477Z,98679.13
2023-01-21T18:34:01.255Z,98680.88
2023-01-21T18:36:29.307Z,98687.72
2023-01-21T18:38:57.988Z,98692.66
2023-01-21T18:41:26.679Z,98687.72
2023-01-21T18:43:54.708Z,98684.28
2023-01-21T18:46:23.311Z,98681.81
2023-01-21T18:48:51.761Z,98679.94
2023-01-21T18:51:21.387Z,98669.66
2023-01-21T18:53:49.745Z,98676.38
2023-01-21T18:56:18.175Z,98686.59
2023-01-21T18:58:46.616Z,98677.63
2023-01-21T19:01:23.029Z,98686.56
2023-01-21T19:03:55.594Z,98674.59
2023-01-21T19:06:26.968Z,98691.75
2023-01-21T19:08:56.359Z,98660.09
2023-01-21T19:11:25.981Z,98668.19
2023-01-21T19:13:54.365Z,98672.28
2023-01-21T19:16:24.189Z,98664.75
2023-01-21T19:18:53.068Z,98657.78
2023-01-21T19:21:21.997Z,98663.16
2023-01-21T19:23:51.596Z,98654.59
2023-01-21T19:26:20.695Z,98645.06
2023-01-21T19:28:49.229Z,98647.97
2023-01-21T19:31:17.845Z,98653.16
2023-01-21T19:33:47.271Z,98647.28
2023-01-21T19:36:19.903Z,98651.53
2023-01-21T19:38:54.698Z,98631.19
2023-01-21T19:41:23.174Z,98643.09
2023-01-21T19:43:52.122Z,98644.09
2023-01-21T19:46:23.233Z,98632.34
2023-01-21T19:48:54.168Z,98638.09
2023-01-21T19:51:22.898Z,98626.31
2023-01-21T19:53:52.416Z,98631.41
2023-01-21T19:56:24.998Z,98647.13
2023-01-21T19:58:54.624Z,98647.31
2023-01-21T20:01:22.808Z,98638.59
2023-01-21T20:04:00.297Z,98640.31
2023-01-21T20:06:31.816Z,98633.38
2023-01-21T20:09:02.766Z,98638.47
2023-01-21T20:11:31.085Z,98647.00
2023-01-21T20:13:59.730Z,98640.28
2023-01-21T20:16:28.864Z,98633.44
2023-01-21T20:18:57.321Z,98647.16
2023-01-21T20:21:27.625Z,98638.69
2023-01-21T20:23:58.367Z,98639.44
2023-01-21T20:26:29.121Z,98625.50
2023-01-21T20:29:00.682Z,98639.16
2023-01-21T20:31:29.413Z,98650.38
2023-01-21T20:33:57.897Z,98640.03
2023-01-21T20:36:27.745Z,98638.41
2023-01-21T20:38:56.836Z,98631.69
2023-01-21T20:41:25.750Z,98644.38
2023-01-21T20:43:58.251Z,98653.97
2023-01-21T20:46:31.234Z,98658.88
2023-01-21T20:49:00.540Z,98652.03
2023-01-21T20:51:29.127Z,98652.13
2023-01-21T20:53:57.183Z,98652.16
2023-01-21T20:56:28.429Z,98651.34
2023-01-21T20:58:58.590Z,98657.25
2023-01-21T21:01:29.097Z,98658.56
2023-01-21T21:03:57.682Z,98654.66
2023-01-21T21:06:30.026Z,98645.31
2023-01-21T21:08:59.048Z,98653.78
2023-01-21T21:11:27.833Z,98657.97
2023-01-21T21:13:58.057Z,98654.41
2023-01-21T21:16:30.285Z,98649.75
2023-01-21T21:19:00.119Z,98653.19
2023-01-21T21:21:28.518Z,98647.97
2023-01-21T21:23:57.175Z,98653.94
2023-01-21T21:26:26.743Z,98650.47
2023-01-21T21:28:56.115Z,98659.97
2023-01-21T21:31:27.994Z,98649.66
2023-01-21T21:33:57.529Z,98651.69
2023-01-21T21:36:26.545Z,98655.63
2023-01-21T21:38:56.811Z,98647.75
2023-01-21T21:41:44.496Z,98632.78
2023-01-21T21:44:14.989Z,98648.34
2023-01-21T21:47:02.707Z,98624.28
2023-01-21T21:49:32.726Z,98635.31
2023-01-21T21:52:01.215Z,98647.44
2023-01-21T21:54:29.740Z,98643.88
2023-01-21T21:56:58.922Z,98656.72
2023-01-21T21:59:27.081Z,98658.56
2023-01-21T22:01:58.530Z,98656.94
2023-01-21T22:04:29.515Z,98664.53
2023-01-21T22:06:58.079Z,98675.16
2023-01-21T22:09:28.679Z,98653.94
2023-01-21T22:11:56.881Z,98668.44
2023-01-21T22:14:25.389Z,98635.41
2023-01-21T22:16:55.505Z,98655.72
2023-01-21T22:19:26.689Z,98653.09
2023-01-21T22:21:56.546Z,98629.28
2023-01-21T22:24:26.063Z,98647.25
2023-01-21T22:26:54.491Z,98650.69
2023-01-21T22:29:23.021Z,98662.56
2023-01-21T22:31:53.055Z,98650.88
2023-01-21T22:34:21.463Z,98635.75
2023-01-21T22:36:52.275Z,98639.06
2023-01-21T22:39:21.817Z,98639.53
2023-01-21T22:41:50.164Z,98639.81
2023-01-21T22:44:19.159Z,98658.28
2023-01-21T22:46:48.547Z,98644.88
2023-01-21T22:49:16.647Z,98643.28
2023-01-21T22:51:46.481Z,98642.56
2023-01-21T22:54:16.432Z,98633.13
2023-01-21T22:56:52.461Z,98635.84
2023-01-21T22:59:22.473Z,98610.94
2023-01-21T23:01:51.529Z,98611.28
2023-01-21T23:04:21.475Z,98639.28
2023-01-21T23:06:54.982Z,98620.66
2023-01-21T23:09:25.908Z,98629.94
2023-01-21T23:11:55.128Z,98633.56
2023-01-21T23:14:23.727Z,98624.78
2023-01-21T23:16:54.581Z,98622.31
2023-01-21T23:19:25.171Z,98642.00
2023-01-21T23:21:55.339Z,98636.00
2023-01-21T23:24:25.967Z,98628.31
2023-01-21T23:26:55.116Z,98624.88
2023-01-21T23:29:24.561Z,98637.03
2023-01-21T23:31:54.200Z,98636.09
2023-01-21T23:34:23.080Z,98617.50
2023-01-21T23:36:51.952Z,98628.56
2023-01-21T23:39:20.658Z,98632.00
2023-01-21T23:41:51.404Z,98627.16
2023-01-21T23:44:21.740Z,98634.56
2023-01-21T23:46:50.515Z,98635.44
2023-01-21T23:49:19.612Z,98636.28
2023-01-21T23:51:48.934Z,98618.53
2023-01-21T23:54:17.710Z,98610.75
2023-01-21T23:56:46.478Z,98620.38
2023-01-21T23:59:19.187Z,98621.06
